Time,TemperatureF,DewpointF,PressureIn,WindDirection,WindDirectionDegrees,WindSpeedMPH,WindSpeedGustMPH,Humidity,HourlyPrecipIn,Conditions,Clouds,dailyrainin,SoftwareType,DateUTC
2013-08-26 00:14:00,65.0,62.0,30.28,South,186,0.0,0.0,89,0.00,,,0.00,,2013-08-26 04:14:00,
2013-08-26 00:24:00,64.0,61.0,30.28,South,186,0.0,0.0,90,0.00,,,0.00,,2013-08-26 04:24:00,
2013-08-26 00:53:00,63.0,60.0,30.28,South,186,0.0,0.0,90,0.00,,,0.00,,2013-08-26 04:53:00,
2013-08-26 01:23:00,63.0,60.0,30.28,South,186,0.0,0.0,91,0.00,,,0.00,,2013-08-26 05:23:00,
2013-08-26 01:52:00,64.0,61.0,30.27,South,189,0.0,1.0,91,0.00,,,0.00,,2013-08-26 05:52:00,
2013-08-26 02:12:00,64.0,61.0,30.27,South,188,0.0,1.0,91,0.00,,,0.00,,2013-08-26 06:12:00,
2013-08-26 02:22:00,64.0,61.0,30.27,South,187,0.0,0.0,91,0.00,,,0.00,,2013-08-26 06:22:00,
2013-08-26 02:52:00,64.0,61.0,30.27,South,187,0.0,0.0,91,0.00,,,0.00,,2013-08-26 06:52:00,
2013-08-26 03:22:00,64.0,61.0,30.26,South,187,0.0,0.0,90,0.00,,,0.00,,2013-08-26 07:22:00,
2013-08-26 03:52:00,63.0,60.0,30.26,South,187,0.0,0.0,91,0.00,,,0.00,,2013-08-26 07:52:00,
2013-08-26 04:22:00,63.0,60.0,30.26,South,187,0.0,0.0,91,0.00,,,0.00,,2013-08-26 08:22:00,
2013-08-26 04:52:00,63.0,60.0,30.25,South,186,0.0,0.0,91,0.00,,,0.00,,2013-08-26 08:52:00,
2013-08-26 05:22:00,63.0,60.0,30.25,South,186,0.0,0.0,91,0.00,,,0.00,,2013-08-26 09:22:00,
2013-08-26 05:54:00,62.0,59.0,30.25,South,186,0.0,0.0,91,0.00,,,0.00,,2013-08-26 09:54:00,
2013-08-26 06:23:00,62.0,59.0,30.25,South,186,0.0,0.0,91,0.00,,,0.00,,2013-08-26 10:23:00,
2013-08-26 06:52:00,62.0,59.0,30.25,South,186,0.0,0.0,91,0.00,,,0.00,,2013-08-26 10:52:00,
2013-08-26 07:22:00,62.0,59.0,30.25,South,186,0.0,0.0,91,0.00,,,0.00,,2013-08-26 11:22:00,
2013-08-26 07:52:00,65.0,62.0,30.25,SSE,158,0.0,1.0,91,0.00,,,0.00,,2013-08-26 11:52:00,
2013-08-26 08:22:00,67.0,64.0,30.25,SSE,160,0.0,0.0,90,0.00,,,0.00,,2013-08-26 12:22:00,
2013-08-26 08:52:00,69.0,65.0,30.25,SSE,160,0.0,1.0,86,0.00,,,0.00,,2013-08-26 12:52:00,
2013-08-26 09:22:00,72.0,67.0,30.26,SSE,154,0.0,1.0,84,0.00,,,0.00,,2013-08-26 13:22:00,
2013-08-26 09:52:00,75.0,68.0,30.27,NE,44,1.0,2.0,80,0.00,,,0.00,,2013-08-26 13:52:00,
2013-08-26 10:02:00,75.0,68.0,30.27,NE,44,1.0,2.0,80,0.00,,,0.00,,2013-08-26 14:02:00,
2013-08-26 10:52:00,79.0,70.0,30.26,NNE,29,1.0,2.0,74,0.00,,,0.00,,2013-08-26 14:52:00,
2013-08-26 11:22:00,81.0,72.0,30.26,SE,143,1.0,2.0,73,0.00,,,0.00,,2013-08-26 15:22:00,
2013-08-26 11:35:00,81.0,72.0,30.26,SE,143,1.0,2.0,73,0.00,,,0.00,,2013-08-26 15:35:00,
2013-08-26 11:59:00,81.0,71.0,30.25,SE,143,1.0,4.0,71,0.00,,,0.00,,2013-08-26 15:59:00,
2013-08-26 12:29:00,82.0,69.0,30.25,NNW,344,1.0,3.0,64,0.00,,,0.00,,2013-08-26 16:29:00,
2013-08-26 12:59:00,83.0,68.0,30.24,NNW,347,1.0,2.0,60,0.00,,,0.00,,2013-08-26 16:59:00,
2013-08-26 13:24:00,85.0,66.0,30.22,NNW,334,1.0,3.0,53,0.00,,,0.00,,2013-08-26 17:24:00,
2013-08-26 13:53:00,85.0,66.0,30.22,NNW,344,1.0,3.0,53,0.00,,,0.00,,2013-08-26 17:53:00,
2013-08-26 14:22:00,86.0,65.0,30.21,SSW,207,1.0,2.0,50,0.00,,,0.00,,2013-08-26 18:22:00,
2013-08-26 14:52:00,86.0,67.0,30.20,North,355,2.0,2.0,53,0.00,,,0.00,,2013-08-26 18:52:00,
2013-08-26 15:22:00,86.0,63.0,30.18,West,273,1.0,3.0,47,0.00,,,0.00,,2013-08-26 19:22:00,
2013-08-26 15:52:00,88.0,64.0,30.17,NE,49,0.0,1.0,45,0.00,,,0.00,,2013-08-26 19:52:00,
2013-08-26 16:22:00,87.0,65.0,30.15,South,177,0.0,2.0,48,0.00,,,0.00,,2013-08-26 20:22:00,
2013-08-26 16:52:00,86.0,67.0,30.14,SE,142,1.0,3.0,53,0.00,,,0.00,,2013-08-26 20:52:00,
2013-08-26 17:22:00,84.0,67.0,30.14,SSE,159,2.0,5.0,56,0.00,,,0.00,,2013-08-26 21:22:00,
2013-08-26 17:55:00,84.0,67.0,30.14,NNW,338,1.0,3.0,57,0.00,,,0.00,,2013-08-26 21:55:00,
2013-08-26 18:26:00,84.0,68.0,30.13,SE,143,1.0,4.0,58,0.00,,,0.00,,2013-08-26 22:26:00,
2013-08-26 18:53:00,81.0,67.0,30.13,SSE,148,1.0,3.0,62,0.00,,,0.00,,2013-08-26 22:53:00,
2013-08-26 19:22:00,78.0,67.0,30.13,SE,139,1.0,2.0,70,0.00,,,0.00,,2013-08-26 23:22:00,
2013-08-26 19:52:00,76.0,67.0,30.13,SSE,152,0.0,1.0,75,0.00,,,0.00,,2013-08-26 23:52:00,
2013-08-26 20:21:00,72.0,66.0,30.13,SSE,152,0.0,0.0,82,0.00,,,0.00,,2013-08-27 00:21:00,
2013-08-26 20:52:00,70.0,66.0,30.13,SSE,152,0.0,0.0,86,0.00,,,0.00,,2013-08-27 00:52:00,
2013-08-26 21:22:00,68.0,64.0,30.14,SSE,152,0.0,0.0,88,0.00,,,0.00,,2013-08-27 01:22:00,
2013-08-26 21:52:00,67.0,64.0,30.13,SSE,152,0.0,0.0,89,0.00,,,0.00,,2013-08-27 01:52:00,
2013-08-26 22:22:00,66.0,63.0,30.14,SSE,152,0.0,0.0,89,0.00,,,0.00,,2013-08-27 02:22:00,
2013-08-26 22:32:00,66.0,63.0,30.14,SSE,152,0.0,0.0,89,0.00,,,0.00,,2013-08-27 02:32:00,
2013-08-26 22:52:00,66.0,63.0,30.14,SSE,152,0.0,0.0,90,0.00,,,0.00,,2013-08-27 02:52:00,
2013-08-26 23:22:00,65.0,62.0,30.13,SSE,152,0.0,0.0,90,0.00,,,0.00,,2013-08-27 03:22:00,
2013-08-26 23:58:00,64.0,61.0,30.13,SSE,152,0.0,0.0,91,0.00,,,0.00,,2013-08-27 03:58:00,